createdAt,value
2023-04-27T00:01:51.880Z,48605.00
2023-04-27T00:04:19.324Z,48599.13
2023-04-27T00:06:46.121Z,48612.84
2023-04-27T00:09:12.887Z,48624.59
2023-04-27T00:11:39.520Z,48599.13
2023-04-27T00:14:06.074Z,48593.25
2023-04-27T00:16:32.791Z,48620.66
2023-04-27T00:18:59.191Z,48632.41
2023-04-27T00:21:25.600Z,48616.75
2023-04-27T00:23:52.349Z,48601.06
2023-04-27T00:26:18.758Z,48610.88
2023-04-27T00:28:45.452Z,48603.03
2023-04-27T00:31:11.815Z,48628.50
2023-04-27T00:33:38.590Z,48616.75
2023-04-27T00:36:05.336Z,48620.66
2023-04-27T00:38:32.002Z,48620.66
2023-04-27T00:41:08.076Z,48597.16
2023-04-27T00:43:45.116Z,48606.94
2023-04-27T00:46:13.773Z,48608.91
2023-04-27T00:48:41.542Z,48612.84
2023-04-27T00:51:08.033Z,48620.66
2023-04-27T00:53:36.118Z,48620.66
2023-04-27T00:56:03.415Z,48620.66
2023-04-27T00:58:29.849Z,48593.25
2023-04-27T01:00:56.469Z,48601.06
2023-04-27T01:03:23.629Z,48616.75
2023-04-27T01:05:50.199Z,48618.72
2023-04-27T01:08:16.582Z,48628.50
2023-04-27T01:10:43.012Z,48591.28
2023-04-27T01:13:10.182Z,48608.91
2023-04-27T01:15:36.639Z,48589.31
2023-04-27T01:18:04.494Z,48636.34
2023-04-27T01:20:31.529Z,48605.00
2023-04-27T01:22:58.545Z,48616.75
2023-04-27T01:25:25.711Z,48612.84
2023-04-27T01:27:52.379Z,48636.34
2023-04-27T01:30:19.152Z,48605.00
2023-04-27T01:32:46.099Z,48616.75
2023-04-27T01:35:12.681Z,48640.25
2023-04-27T01:37:39.217Z,48616.75
2023-04-27T01:40:07.055Z,48608.91
2023-04-27T01:42:33.635Z,48591.28
2023-04-27T01:45:00.759Z,48601.06
2023-04-27T01:47:27.684Z,48620.66
2023-04-27T01:49:54.238Z,48593.25
2023-04-27T01:52:20.878Z,48597.16
2023-04-27T01:54:47.436Z,48632.41
2023-04-27T01:57:14.401Z,48612.84
2023-04-27T01:59:40.918Z,48591.28
2023-04-27T02:02:07.532Z,48605.00
2023-04-27T02:04:36.565Z,48601.06
2023-04-27T02:07:03.484Z,48605.00
2023-04-27T02:09:30.222Z,48620.66
2023-04-27T02:11:56.688Z,48612.84
2023-04-27T02:14:23.498Z,48616.75
2023-04-27T02:16:50.096Z,48628.50
2023-04-27T02:19:16.877Z,48601.06
2023-04-27T02:21:43.455Z,48591.28
2023-04-27T02:24:10.762Z,48601.06
2023-04-27T02:26:37.237Z,48595.19
2023-04-27T02:29:04.336Z,48573.66
2023-04-27T02:31:31.486Z,48605.00
2023-04-27T02:33:58.367Z,48597.16
2023-04-27T02:36:24.917Z,48583.44
2023-04-27T02:38:51.665Z,48589.31
2023-04-27T02:41:18.204Z,48577.56
2023-04-27T02:43:44.746Z,48601.06
2023-04-27T02:46:11.301Z,48581.50
2023-04-27T02:48:37.805Z,48608.91
2023-04-27T02:51:05.201Z,48585.41
2023-04-27T02:53:31.754Z,48577.56
2023-04-27T02:55:59.179Z,48599.13
2023-04-27T02:58:26.326Z,48601.06
2023-04-27T03:00:57.032Z,48597.16
2023-04-27T03:03:24.310Z,48595.19
2023-04-27T03:05:51.091Z,48593.25
2023-04-27T03:08:17.621Z,48585.41
2023-04-27T03:10:44.559Z,48605.00
2023-04-27T03:13:11.148Z,48601.06
2023-04-27T03:15:37.746Z,48597.16
2023-04-27T03:18:04.887Z,48579.53
2023-04-27T03:20:32.411Z,48581.50
2023-04-27T03:22:58.807Z,48612.84
2023-04-27T03:25:25.217Z,48573.66
2023-04-27T03:27:51.611Z,48595.19
2023-04-27T03:30:18.383Z,48577.56
2023-04-27T03:32:47.160Z,48585.41
2023-04-27T03:35:14.211Z,48581.50
2023-04-27T03:37:40.609Z,48567.78
2023-04-27T03:40:07.641Z,48593.25
2023-04-27T03:42:34.024Z,48597.16
2023-04-27T03:45:00.484Z,48577.56
2023-04-27T03:47:26.880Z,48601.06
2023-04-27T03:49:54.017Z,48614.78
2023-04-27T03:52:20.665Z,48608.91
2023-04-27T03:54:47.630Z,48589.31
2023-04-27T03:57:14.030Z,48606.94
2023-04-27T03:59:40.936Z,48605.00
2023-04-27T04:02:08.692Z,48589.31
2023-04-27T04:04:35.345Z,48583.44
2023-04-27T04:07:01.917Z,48595.19
2023-04-27T04:09:28.325Z,48597.16
2023-04-27T04:11:54.795Z,48616.75
2023-04-27T04:14:21.197Z,48601.06
2023-04-27T04:16:47.577Z,48585.41
2023-04-27T04:19:14.187Z,48573.66
2023-04-27T04:21:40.980Z,48601.06
2023-04-27T04:24:07.544Z,48597.16
2023-04-27T04:26:33.966Z,48573.66
2023-04-27T04:29:01.052Z,48575.63
2023-04-27T04:31:27.596Z,48589.31
2023-04-27T04:33:54.062Z,48585.41
2023-04-27T04:36:20.473Z,48601.06
2023-04-27T04:38:47.161Z,48585.41
2023-04-27T04:41:13.999Z,48605.00
2023-04-27T04:43:40.361Z,48605.00
2023-04-27T04:46:07.005Z,48589.31
2023-04-27T04:48:33.420Z,48573.66
2023-04-27T04:50:59.984Z,48569.72
2023-04-27T04:53:26.364Z,48589.31
2023-04-27T04:55:53.095Z,48599.13
2023-04-27T04:58:19.468Z,48595.19
2023-04-27T05:00:45.834Z,48577.56
2023-04-27T05:03:12.328Z,48601.06
2023-04-27T05:05:38.798Z,48585.41
2023-04-27T05:08:05.186Z,48599.13
2023-04-27T05:10:31.669Z,48593.25
2023-04-27T05:12:58.070Z,48585.41
2023-04-27T05:15:24.814Z,48577.56
2023-04-27T05:17:51.321Z,48583.44
2023-04-27T05:20:18.531Z,48587.38
2023-04-27T05:22:44.912Z,48597.16
2023-04-27T05:25:11.509Z,48585.41
2023-04-27T05:27:37.874Z,48589.31
2023-04-27T05:30:04.766Z,48612.84
2023-04-27T05:32:31.390Z,48587.38
2023-04-27T05:34:57.765Z,48601.06
2023-04-27T05:37:24.157Z,48608.91
2023-04-27T05:39:50.739Z,48597.16
2023-04-27T05:42:17.119Z,48573.66
2023-04-27T05:44:43.816Z,48601.06
2023-04-27T05:47:10.806Z,48605.00
2023-04-27T05:49:37.507Z,48597.16
2023-04-27T05:52:04.600Z,48597.16
2023-04-27T05:54:31.002Z,48581.50
2023-04-27T05:56:57.763Z,48585.41
2023-04-27T05:59:24.167Z,48573.66
2023-04-27T06:01:50.648Z,48585.41
2023-04-27T06:04:17.280Z,48589.31
2023-04-27T06:06:45.466Z,48597.16
2023-04-27T06:09:12.087Z,48608.91
2023-04-27T06:11:38.820Z,48601.06
2023-04-27T06:14:05.336Z,48593.25
2023-04-27T06:16:31.812Z,48612.84
2023-04-27T06:18:58.267Z,48593.25
2023-04-27T06:21:24.697Z,48605.00
2023-04-27T06:23:51.065Z,48605.00
2023-04-27T06:26:17.460Z,48608.91
2023-04-27T06:28:43.821Z,48597.16
2023-04-27T06:31:10.389Z,48603.03
2023-04-27T06:33:36.798Z,48589.31
2023-04-27T06:36:03.330Z,48597.16
2023-04-27T06:38:29.684Z,48577.56
2023-04-27T06:40:56.311Z,48593.25
2023-04-27T06:43:22.860Z,48583.44
2023-04-27T06:45:49.379Z,48589.31
2023-04-27T06:48:16.153Z,48601.06
2023-04-27T06:50:43.432Z,48593.25
2023-04-27T06:53:10.273Z,48606.94
2023-04-27T06:55:36.637Z,48624.59
2023-04-27T06:58:03.461Z,48597.16
2023-04-27T07:00:30.821Z,48605.00
2023-04-27T07:02:58.568Z,48577.56
2023-04-27T07:05:25.052Z,48603.03
2023-04-27T07:07:51.928Z,48595.19
2023-04-27T07:10:18.405Z,48603.03
2023-04-27T07:12:44.882Z,48616.75
2023-04-27T07:15:11.331Z,48585.41
2023-04-27T07:17:37.892Z,48606.94
2023-04-27T07:20:06.301Z,48628.50
2023-04-27T07:22:33.347Z,48636.34
2023-04-27T07:24:59.780Z,48605.00
2023-04-27T07:27:26.625Z,48612.84
2023-04-27T07:29:53.324Z,48605.00
2023-04-27T07:32:19.805Z,48612.84
2023-04-27T07:34:53.346Z,48605.00
2023-04-27T07:37:20.946Z,48603.03
2023-04-27T07:39:48.956Z,48601.06
2023-04-27T07:42:16.306Z,48597.16
2023-04-27T07:44:42.771Z,48605.00
2023-04-27T07:47:09.438Z,48603.03
2023-04-27T07:49:37.295Z,48634.38
2023-04-27T07:52:04.656Z,48610.88
2023-04-27T07:54:31.341Z,48620.66
2023-04-27T07:56:57.844Z,48605.00
2023-04-27T07:59:24.266Z,48616.75
2023-04-27T08:01:50.835Z,48636.34
2023-04-27T08:04:17.929Z,48624.59
2023-04-27T08:06:46.633Z,48655.94
2023-04-27T08:09:14.344Z,48620.66
2023-04-27T08:11:41.059Z,48640.25
2023-04-27T08:14:13.750Z,48616.75
2023-04-27T08:16:41.967Z,48608.91
2023-04-27T08:19:09.630Z,48634.38
2023-04-27T08:21:36.910Z,48626.53
2023-04-27T08:24:04.368Z,48618.72
2023-04-27T08:26:30.822Z,48636.34
2023-04-27T08:28:57.746Z,48632.41
2023-04-27T08:31:24.724Z,48628.50
2023-04-27T08:33:52.417Z,48644.16
2023-04-27T08:36:20.876Z,48605.00
2023-04-27T08:38:47.422Z,48614.78
2023-04-27T08:41:22.460Z,48648.09
2023-04-27T08:43:52.071Z,48620.66
2023-04-27T08:46:23.843Z,48620.66
2023-04-27T08:48:51.801Z,48648.09
2023-04-27T08:51:18.368Z,48650.06
2023-04-27T08:53:49.378Z,48652.00
2023-04-27T08:56:16.105Z,48648.09
2023-04-27T08:58:42.684Z,48652.00
2023-04-27T09:01:09.120Z,48636.34
2023-04-27T09:03:36.698Z,48659.84
2023-04-27T09:06:05.988Z,48652.00
2023-04-27T09:08:51.299Z,48632.41
2023-04-27T09:11:37.931Z,48652.00
2023-04-27T09:14:19.386Z,48652.00
2023-04-27T09:16:46.412Z,48663.75
2023-04-27T09:19:24.148Z,48626.53
2023-04-27T09:21:51.649Z,48636.34
2023-04-27T09:24:18.353Z,48640.25
2023-04-27T09:26:49.870Z,48634.38
2023-04-27T09:29:16.315Z,48610.88
2023-04-27T09:31:42.722Z,48671.59
2023-04-27T09:34:09.488Z,48655.94
2023-04-27T09:36:36.308Z,48652.00
2023-04-27T09:39:06.470Z,48642.22
2023-04-27T09:41:33.335Z,48650.06
2023-04-27T09:44:00.199Z,48667.69
2023-04-27T09:46:28.760Z,48655.94
2023-04-27T09:48:56.496Z,48640.25
2023-04-27T09:51:22.870Z,48642.22
2023-04-27T09:53:56.521Z,48652.00
2023-04-27T09:56:31.643Z,48640.25
2023-04-27T09:59:32.207Z,48644.16
2023-04-27T10:02:07.451Z,48652.00
2023-04-27T10:04:53.448Z,48663.75
2023-04-27T10:07:21.114Z,48659.84
2023-04-27T10:09:49.374Z,48636.34
2023-04-27T10:12:26.185Z,48659.84
2023-04-27T10:14:55.676Z,48679.44
2023-04-27T10:17:33.169Z,48669.63
2023-04-27T10:20:01.647Z,48644.16
2023-04-27T10:22:42.243Z,48642.22
2023-04-27T10:25:20.258Z,48655.94
2023-04-27T10:27:51.892Z,48663.75
2023-04-27T10:30:20.227Z,48652.00
2023-04-27T10:32:58.313Z,48632.41
2023-04-27T10:35:43.309Z,48648.09
2023-04-27T10:38:21.831Z,48659.84
2023-04-27T10:41:04.879Z,48659.84
2023-04-27T10:43:36.347Z,48667.69
2023-04-27T10:46:23.590Z,48671.59
2023-04-27T10:48:50.797Z,48665.72
2023-04-27T10:51:18.149Z,48655.94
2023-04-27T10:53:44.674Z,48652.00
2023-04-27T10:56:11.285Z,48673.56
2023-04-27T11:01:08.184Z,48652.00
2023-04-27T11:03:35.512Z,48683.34
2023-04-27T11:06:04.600Z,48671.59
2023-04-27T11:08:36.650Z,48655.94
2023-04-27T11:11:03.772Z,48667.69
2023-04-27T11:13:30.912Z,48683.34
2023-04-27T11:15:59.515Z,48663.75
2023-04-27T11:18:31.614Z,48673.56
2023-04-27T11:21:11.902Z,48671.59
2023-04-27T11:23:39.795Z,48663.75
2023-04-27T11:26:22.171Z,48687.28
2023-04-27T11:29:01.475Z,48659.84
2023-04-27T11:31:38.613Z,48659.84
2023-04-27T11:34:07.831Z,48667.69
2023-04-27T11:36:34.338Z,48673.56
2023-04-27T11:39:01.084Z,48652.00
2023-04-27T11:41:35.182Z,48675.50
2023-04-27T11:44:09.168Z,48673.56
2023-04-27T11:46:39.266Z,48685.31
2023-04-27T11:49:08.666Z,48675.50
2023-04-27T11:51:36.072Z,48681.41
2023-04-27T11:54:06.668Z,48675.50
2023-04-27T11:56:41.579Z,48679.44
2023-04-27T11:59:21.667Z,48661.81
2023-04-27T12:01:48.154Z,48659.84
2023-04-27T12:04:14.894Z,48661.81
2023-04-27T12:06:42.044Z,48669.63
2023-04-27T12:09:08.834Z,48663.75
2023-04-27T12:11:35.368Z,48671.59
2023-04-27T12:14:02.485Z,48657.88
2023-04-27T12:16:28.923Z,48683.34
2023-04-27T12:18:55.722Z,48663.75
2023-04-27T12:21:22.223Z,48679.44
2023-04-27T12:23:48.625Z,48683.34
2023-04-27T12:26:15.507Z,48681.41
2023-04-27T12:28:42.028Z,48657.88
2023-04-27T12:31:08.576Z,48675.50
2023-04-27T12:33:35.247Z,48683.34
2023-04-27T12:36:02.073Z,48702.94
2023-04-27T12:38:29.129Z,48667.69
2023-04-27T12:40:55.553Z,48691.19
2023-04-27T12:43:21.921Z,48663.75
2023-04-27T12:45:48.312Z,48679.44
2023-04-27T12:48:17.475Z,48667.69
2023-04-27T12:50:44.374Z,48685.31
2023-04-27T12:53:10.811Z,48671.59
2023-04-27T12:55:37.379Z,48683.34
2023-04-27T12:58:04.839Z,48671.59
2023-04-27T13:00:31.388Z,48659.84
2023-04-27T13:02:58.557Z,48671.59
2023-04-27T13:05:25.243Z,48697.06
2023-04-27T13:07:52.293Z,48691.19
2023-04-27T13:10:18.732Z,48685.31
2023-04-27T13:12:45.657Z,48671.59
2023-04-27T13:15:12.040Z,48667.69
2023-04-27T13:17:38.475Z,48679.44
2023-04-27T13:20:07.241Z,48679.44
2023-04-27T13:22:33.637Z,48687.28
2023-04-27T13:25:00.819Z,48691.19
2023-04-27T13:27:28.504Z,48700.97
2023-04-27T13:29:54.982Z,48679.44
2023-04-27T13:32:22.153Z,48702.94
2023-04-27T13:34:49.168Z,48683.34
2023-04-27T13:37:15.575Z,48683.34
2023-04-27T13:39:42.420Z,48663.75
2023-04-27T13:42:08.806Z,48671.59
2023-04-27T13:44:35.199Z,48693.16
2023-04-27T13:47:01.609Z,48679.44
2023-04-27T13:49:28.147Z,48700.97
2023-04-27T13:51:54.616Z,48683.34
2023-04-27T13:54:21.499Z,48675.50
2023-04-27T13:56:48.347Z,48673.56
2023-04-27T13:59:16.523Z,48671.59
2023-04-27T14:01:43.179Z,48683.34
2023-04-27T14:04:10.091Z,48669.63
2023-04-27T14:06:36.692Z,48689.22
2023-04-27T14:09:03.954Z,48695.09
2023-04-27T14:11:30.519Z,48675.50
2023-04-27T14:13:57.850Z,48702.94
2023-04-27T14:16:24.570Z,48663.75
2023-04-27T14:18:52.225Z,48695.09
2023-04-27T14:21:18.838Z,48704.91
2023-04-27T14:23:45.269Z,48673.56
2023-04-27T14:26:11.662Z,48695.09
2023-04-27T14:28:38.053Z,48683.34
2023-04-27T14:31:04.482Z,48671.59
2023-04-27T14:33:31.018Z,48699.03
2023-04-27T14:35:57.706Z,48683.34
2023-04-27T14:38:24.109Z,48702.94
2023-04-27T14:40:50.484Z,48671.59
2023-04-27T14:43:17.854Z,48683.34
2023-04-27T14:45:51.634Z,48699.03
2023-04-27T14:48:20.492Z,48669.63
2023-04-27T14:50:46.960Z,48702.94
2023-04-27T14:53:13.400Z,48665.72
2023-04-27T14:55:41.145Z,48702.94
2023-04-27T14:58:07.535Z,48695.09
2023-04-27T15:00:33.919Z,48699.03
2023-04-27T15:03:00.691Z,48683.34
2023-04-27T15:05:27.154Z,48667.69
2023-04-27T15:07:53.526Z,48695.09
2023-04-27T15:10:19.942Z,48695.09
2023-04-27T15:12:46.811Z,48691.19
2023-04-27T15:15:13.476Z,48693.16
2023-04-27T15:17:40.379Z,48695.09
2023-04-27T15:20:07.984Z,48679.44
2023-04-27T15:22:34.774Z,48689.22
2023-04-27T15:25:01.147Z,48699.03
2023-04-27T15:27:27.713Z,48702.94
2023-04-27T15:29:54.647Z,48663.75
2023-04-27T15:32:23.308Z,48691.19
2023-04-27T15:34:49.932Z,48687.28
2023-04-27T15:37:16.525Z,48693.16
2023-04-27T15:39:44.137Z,48695.09
2023-04-27T15:42:10.512Z,48695.09
2023-04-27T15:44:37.266Z,48671.59
2023-04-27T15:47:03.922Z,48683.34
2023-04-27T15:49:30.490Z,48683.34
2023-04-27T15:51:56.922Z,48708.81
2023-04-27T15:54:23.299Z,48685.31
2023-04-27T15:56:50.058Z,48683.34
2023-04-27T15:59:16.710Z,48708.81
2023-04-27T16:01:43.353Z,48679.44
2023-04-27T16:04:09.998Z,48689.22
2023-04-27T16:06:36.812Z,48710.78
2023-04-27T16:09:04.726Z,48675.50
2023-04-27T16:11:31.475Z,48687.28
2023-04-27T16:13:58.281Z,48712.72
2023-04-27T16:16:24.882Z,48706.84
2023-04-27T16:18:51.522Z,48697.06
2023-04-27T16:21:18.058Z,48667.69
2023-04-27T16:23:44.718Z,48702.94
2023-04-27T16:26:11.482Z,48675.50
2023-04-27T16:28:38.084Z,48691.19
2023-04-27T16:31:04.613Z,48695.09
2023-04-27T16:33:31.309Z,48671.59
2023-04-27T16:35:57.744Z,48659.84
2023-04-27T16:38:24.207Z,48687.28
2023-04-27T16:40:51.888Z,48691.19
2023-04-27T16:43:18.429Z,48683.34
2023-04-27T16:45:44.800Z,48710.78
2023-04-27T16:48:12.022Z,48681.41
2023-04-27T16:50:38.809Z,48691.19
2023-04-27T16:53:07.081Z,48675.50
2023-04-27T16:55:34.331Z,48673.56
2023-04-27T16:58:00.943Z,48683.34
2023-04-27T17:00:28.260Z,48683.34
2023-04-27T17:02:54.942Z,48702.94
2023-04-27T17:05:21.562Z,48691.19
2023-04-27T17:07:48.002Z,48683.34
2023-04-27T17:10:14.616Z,48659.84
2023-04-27T17:12:41.568Z,48695.09
2023-04-27T17:15:08.632Z,48675.50
2023-04-27T17:17:35.388Z,48691.19
2023-04-27T17:20:02.026Z,48675.50
2023-04-27T17:22:30.368Z,48697.06
2023-04-27T17:24:56.725Z,48697.06
2023-04-27T17:27:23.119Z,48683.34
2023-04-27T17:29:49.490Z,48699.03
2023-04-27T17:32:15.976Z,48695.09
2023-04-27T17:34:43.143Z,48683.34
2023-04-27T17:37:09.724Z,48683.34
2023-04-27T17:39:36.114Z,48685.31
2023-04-27T17:42:02.673Z,48673.56
2023-04-27T17:44:29.159Z,48685.31
2023-04-27T17:46:55.856Z,48659.84
2023-04-27T17:49:22.933Z,48653.97
2023-04-27T17:51:49.487Z,48687.28
2023-04-27T17:54:15.946Z,48663.75
2023-04-27T17:56:42.777Z,48679.44
2023-04-27T17:59:09.440Z,48683.34
2023-04-27T18:01:36.443Z,48687.28
2023-04-27T18:04:04.590Z,48679.44
2023-04-27T18:06:31.996Z,48699.03
2023-04-27T18:08:59.096Z,48663.75
2023-04-27T18:11:25.950Z,48679.44
2023-04-27T18:13:54.053Z,48675.50
2023-04-27T18:16:20.524Z,48675.50
2023-04-27T18:18:47.178Z,48697.06
2023-04-27T18:21:13.554Z,48659.84
2023-04-27T18:23:41.340Z,48691.19
2023-04-27T18:26:09.770Z,48673.56
2023-04-27T18:28:39.992Z,48687.28
2023-04-27T18:31:14.251Z,48667.69
2023-04-27T18:33:40.662Z,48679.44
2023-04-27T18:36:07.932Z,48646.13
2023-04-27T18:38:34.310Z,48659.84
2023-04-27T18:41:00.747Z,48652.00
2023-04-27T18:43:27.217Z,48648.09
2023-04-27T18:45:53.719Z,48687.28
2023-04-27T18:48:20.366Z,48671.59
2023-04-27T18:50:48.416Z,48659.84
2023-04-27T18:53:15.473Z,48652.00
2023-04-27T18:55:41.907Z,48659.84
2023-04-27T18:58:08.278Z,48675.50
2023-04-27T19:00:34.651Z,48667.69
2023-04-27T19:03:01.237Z,48652.00
2023-04-27T19:05:27.797Z,48655.94
2023-04-27T19:07:54.573Z,48659.84
2023-04-27T19:10:21.255Z,48655.94
2023-04-27T19:12:47.656Z,48667.69
2023-04-27T19:15:14.354Z,48671.59
2023-04-27T19:17:41.371Z,48683.34
2023-04-27T19:20:08.825Z,48661.81
2023-04-27T19:22:36.836Z,48636.34
2023-04-27T19:25:06.532Z,48655.94
2023-04-27T19:27:33.062Z,48650.06
2023-04-27T19:29:59.495Z,48667.69
2023-04-27T19:32:27.410Z,48669.63
2023-04-27T19:34:56.063Z,48667.69
2023-04-27T19:37:23.231Z,48659.84
2023-04-27T19:39:49.760Z,48663.75
2023-04-27T19:42:16.677Z,48659.84
2023-04-27T19:44:43.165Z,48673.56
2023-04-27T19:47:12.436Z,48673.56
2023-04-27T19:49:38.943Z,48667.69
2023-04-27T19:52:06.493Z,48679.44
2023-04-27T19:54:32.997Z,48655.94
2023-04-27T19:56:59.400Z,48648.09
2023-04-27T19:59:26.489Z,48632.41
2023-04-27T20:01:52.964Z,48650.06
2023-04-27T20:04:20.723Z,48659.84
2023-04-27T20:06:47.557Z,48652.00
2023-04-27T20:09:13.907Z,48652.00
2023-04-27T20:11:40.664Z,48655.94
2023-04-27T20:14:07.106Z,48640.25
2023-04-27T20:16:33.820Z,48671.59
2023-04-27T20:19:00.327Z,48648.09
2023-04-27T20:21:27.999Z,48655.94
2023-04-27T20:23:54.441Z,48646.13
2023-04-27T20:26:21.065Z,48648.09
2023-04-27T20:28:48.461Z,48642.22
2023-04-27T20:31:15.490Z,48667.69
2023-04-27T20:33:41.888Z,48661.81
2023-04-27T20:36:17.232Z,48640.25
2023-04-27T20:38:45.019Z,48628.50
2023-04-27T20:41:12.225Z,48630.47
2023-04-27T20:43:40.121Z,48655.94
2023-04-27T20:46:08.020Z,48640.25
2023-04-27T20:48:34.659Z,48638.28
2023-04-27T20:51:01.141Z,48636.34
2023-04-27T20:53:28.242Z,48612.84
2023-04-27T20:55:54.895Z,48632.41
2023-04-27T20:58:21.358Z,48628.50
2023-04-27T21:00:47.803Z,48648.09
2023-04-27T21:03:14.557Z,48636.34
2023-04-27T21:05:41.413Z,48644.16
2023-04-27T21:08:07.842Z,48636.34
2023-04-27T21:10:35.815Z,48628.50
2023-04-27T21:13:03.989Z,48646.13
2023-04-27T21:15:30.519Z,48652.00
2023-04-27T21:17:56.930Z,48632.41
2023-04-27T21:20:23.336Z,48636.34
2023-04-27T21:22:49.752Z,48632.41
2023-04-27T21:25:16.561Z,48659.84
2023-04-27T21:27:42.979Z,48638.28
2023-04-27T21:30:10.315Z,48655.94
2023-04-27T21:32:37.065Z,48616.75
2023-04-27T21:35:03.728Z,48644.16
2023-04-27T21:37:30.448Z,48608.91
2023-04-27T21:39:56.840Z,48652.00
2023-04-27T21:42:23.230Z,48626.53
2023-04-27T21:44:49.584Z,48628.50
2023-04-27T21:47:15.964Z,48644.16
2023-04-27T21:49:42.344Z,48620.66
2023-04-27T21:52:08.788Z,48644.16
2023-04-27T21:54:35.475Z,48632.41
2023-04-27T21:57:02.269Z,48634.38
2023-04-27T21:59:28.668Z,48652.00
2023-04-27T22:01:56.372Z,48620.66
2023-04-27T22:04:23.285Z,48630.47
2023-04-27T22:06:50.414Z,48624.59
2023-04-27T22:09:16.942Z,48642.22
2023-04-27T22:11:43.376Z,48652.00
2023-04-27T22:14:09.765Z,48661.81
2023-04-27T22:16:36.820Z,48620.66
2023-04-27T22:19:03.770Z,48659.84
2023-04-27T22:21:30.175Z,48648.09
2023-04-27T22:23:56.560Z,48669.63
2023-04-27T22:26:23.408Z,48616.75
2023-04-27T22:28:49.777Z,48640.25
2023-04-27T22:31:16.350Z,48648.09
2023-04-27T22:33:42.753Z,48640.25
2023-04-27T22:36:09.447Z,48620.66
2023-04-27T22:38:35.995Z,48632.41
2023-04-27T22:41:02.396Z,48628.50
2023-04-27T22:43:28.777Z,48638.28
2023-04-27T22:45:55.283Z,48610.88
2023-04-27T22:48:21.957Z,48612.84
2023-04-27T22:50:48.365Z,48616.75
2023-04-27T22:53:15.063Z,48608.91
2023-04-27T22:55:41.442Z,48630.47
2023-04-27T22:58:07.813Z,48638.28
2023-04-27T23:00:34.216Z,48628.50
2023-04-27T23:03:01.085Z,48628.50
2023-04-27T23:05:28.992Z,48632.41
2023-04-27T23:07:55.466Z,48597.16
2023-04-27T23:10:22.609Z,48616.75
2023-04-27T23:12:48.979Z,48620.66
2023-04-27T23:15:16.417Z,48616.75
2023-04-27T23:17:43.514Z,48618.72
2023-04-27T23:20:16.921Z,48640.25
2023-04-27T23:22:53.970Z,48620.66
2023-04-27T23:25:20.638Z,48632.41
2023-04-27T23:27:47.530Z,48608.91
2023-04-27T23:30:14.849Z,48620.66
2023-04-27T23:32:41.611Z,48589.31
2023-04-27T23:35:08.727Z,48628.50
2023-04-27T23:37:35.111Z,48608.91
2023-04-27T23:40:01.515Z,48612.84
2023-04-27T23:42:28.198Z,48626.53
2023-04-27T23:44:54.561Z,48616.75
2023-04-27T23:47:21.398Z,48610.88
2023-04-27T23:49:47.799Z,48616.75
2023-04-27T23:52:14.198Z,48632.41
2023-04-27T23:54:40.970Z,48612.84
2023-04-27T23:57:07.546Z,48610.88
2023-04-27T23:59:37.201Z,48616.75
